createdAt,value
2022-09-13T00:01:14.000Z,7.5
2022-09-13T00:04:46.000Z,7.5
2022-09-13T00:08:19.000Z,7.9
2022-09-13T00:11:52.000Z,7.5
2022-09-13T00:15:24.000Z,7.5
2022-09-13T00:18:57.000Z,7.3
2022-09-13T00:22:30.000Z,7.5
2022-09-13T00:26:02.000Z,7.3
2022-09-13T00:29:35.000Z,7.8
2022-09-13T00:33:07.000Z,7.9
2022-09-13T00:36:40.000Z,7.4
2022-09-13T00:39:31.000Z,8.3
2022-09-13T00:43:04.000Z,7.6
2022-09-13T00:46:36.000Z,7.4
2022-09-13T00:50:09.000Z,8.1
2022-09-13T00:53:42.000Z,7.8
2022-09-13T00:57:14.000Z,8.4
2022-09-13T01:00:47.000Z,7.7
2022-09-13T01:04:20.000Z,8
2022-09-13T01:07:53.000Z,8.1
2022-09-13T01:11:25.000Z,7.3
2022-09-13T01:14:58.000Z,8.3
2022-09-13T01:17:49.000Z,9
2022-09-13T01:21:21.000Z,8.7
2022-09-13T01:24:54.000Z,8.8
2022-09-13T01:28:27.000Z,8.4
2022-09-13T01:31:59.000Z,8.8
2022-09-13T01:35:32.000Z,8.5
2022-09-13T01:39:05.000Z,8.9
2022-09-13T01:42:37.000Z,8.3
2022-09-13T01:46:10.000Z,8.5
2022-09-13T01:49:43.000Z,8.1
2022-09-13T01:53:16.000Z,8.2
2022-09-13T01:56:07.000Z,8.4
2022-09-13T01:59:40.000Z,8.2
2022-09-13T02:03:13.000Z,8.1
2022-09-13T02:06:45.000Z,8.8
2022-09-13T02:10:18.000Z,8
2022-09-13T02:13:50.000Z,8.6
2022-09-13T02:17:23.000Z,8.6
2022-09-13T02:20:56.000Z,8.1
2022-09-13T02:24:28.000Z,7.9
2022-09-13T02:28:01.000Z,7.3
2022-09-13T02:31:33.000Z,8.1
2022-09-13T02:34:24.000Z,8.7
2022-09-13T02:37:57.000Z,8.4
2022-09-13T02:41:30.000Z,8.5
2022-09-13T02:45:02.000Z,8.5
2022-09-13T02:48:35.000Z,8.5
2022-09-13T02:52:07.000Z,8.2
2022-09-13T02:55:40.000Z,8.6
2022-09-13T02:59:13.000Z,8.5
2022-09-13T03:02:45.000Z,8.5
2022-09-13T03:06:18.000Z,8.8
2022-09-13T03:09:51.000Z,9
2022-09-13T03:12:42.000Z,8.9
2022-09-13T03:16:14.000Z,8.7
2022-09-13T03:19:47.000Z,8.7
2022-09-13T03:23:20.000Z,8.4
2022-09-13T03:26:53.000Z,9.4
2022-09-13T03:30:25.000Z,8.6
2022-09-13T03:33:58.000Z,9.2
2022-09-13T03:37:30.000Z,9.3
2022-09-13T03:41:03.000Z,9.1
2022-09-13T03:44:36.000Z,7.9
2022-09-13T03:48:08.000Z,9.1
2022-09-13T03:50:59.000Z,8.2
2022-09-13T03:54:32.000Z,9
2022-09-13T03:58:05.000Z,9.7
2022-09-13T04:01:37.000Z,8.9
2022-09-13T04:05:10.000Z,8.9
2022-09-13T04:08:42.000Z,8.3
2022-09-13T04:12:15.000Z,7.7
2022-09-13T04:15:48.000Z,8.7
2022-09-13T04:19:20.000Z,8.3
2022-09-13T04:22:53.000Z,8.8
2022-09-13T04:26:26.000Z,8
2022-09-13T04:29:17.000Z,7.7
2022-09-13T04:32:49.000Z,9
2022-09-13T04:36:22.000Z,9
2022-09-13T04:39:54.000Z,8.6
2022-09-13T04:43:27.000Z,7.9
2022-09-13T04:47:00.000Z,9.5
2022-09-13T04:50:32.000Z,9.4
2022-09-13T04:54:05.000Z,9.8
2022-09-13T04:57:41.000Z,8.2
2022-09-13T05:01:14.000Z,8.6
2022-09-13T05:04:52.000Z,8.6
2022-09-13T05:07:44.000Z,8.4
2022-09-13T05:11:16.000Z,8
2022-09-13T05:14:49.000Z,8.5
2022-09-13T05:18:22.000Z,8.8
2022-09-13T05:21:54.000Z,9
2022-09-13T05:25:27.000Z,8.3
2022-09-13T05:28:59.000Z,7.5
2022-09-13T05:32:32.000Z,8.8
2022-09-13T05:36:04.000Z,8.7
2022-09-13T05:39:37.000Z,8.9
2022-09-13T05:43:35.000Z,7.6
2022-09-13T05:46:27.000Z,9.7
2022-09-13T05:49:59.000Z,7.7
2022-09-13T05:53:48.000Z,7.5
2022-09-13T05:57:20.000Z,7.9
2022-09-13T06:00:53.000Z,8.9
2022-09-13T06:04:26.000Z,7.7
2022-09-13T06:07:58.000Z,7.8
2022-09-13T06:11:31.000Z,9.2
2022-09-13T06:15:04.000Z,7.9
2022-09-13T06:18:36.000Z,7.3
2022-09-13T06:22:09.000Z,8.9
2022-09-13T06:25:00.000Z,9.6
2022-09-13T06:28:33.000Z,7.2
2022-09-13T06:32:05.000Z,8
2022-09-13T06:35:38.000Z,9.1
2022-09-13T06:39:11.000Z,10.2
2022-09-13T06:42:43.000Z,10.8
2022-09-13T06:46:16.000Z,11
2022-09-13T06:49:50.000Z,8.3
2022-09-13T06:53:23.000Z,8.6
2022-09-13T06:56:55.000Z,9.2
2022-09-13T07:00:28.000Z,9.5
2022-09-13T07:03:19.000Z,11.9
2022-09-13T07:06:52.000Z,9.6
2022-09-13T07:10:24.000Z,9
2022-09-13T07:13:57.000Z,10.2
2022-09-13T07:17:30.000Z,10.6
2022-09-13T07:21:02.000Z,9
2022-09-13T07:24:35.000Z,11.1
2022-09-13T07:28:07.000Z,10.9
2022-09-13T07:31:40.000Z,12.2
2022-09-13T07:35:13.000Z,13.3
2022-09-13T07:38:45.000Z,12.7
2022-09-13T07:41:36.000Z,9.1
2022-09-13T07:45:09.000Z,10.9
2022-09-13T07:48:42.000Z,12.1
2022-09-13T07:52:15.000Z,12.1
2022-09-13T07:55:53.000Z,10.6
2022-09-13T07:59:26.000Z,9
2022-09-13T08:02:59.000Z,7.8
2022-09-13T08:06:35.000Z,8.6
2022-09-13T08:10:07.000Z,9.2
2022-09-13T08:13:40.000Z,9.3
2022-09-13T08:17:13.000Z,12
2022-09-13T08:20:04.000Z,9.4
2022-09-13T08:23:37.000Z,10.7
2022-09-13T08:27:09.000Z,9.2
2022-09-13T08:30:42.000Z,11.6
2022-09-13T08:34:15.000Z,12.9
2022-09-13T08:37:47.000Z,11.3
2022-09-13T08:41:20.000Z,9.3
2022-09-13T08:44:53.000Z,9.8
2022-09-13T08:48:26.000Z,9.8
2022-09-13T08:51:59.000Z,12.3
2022-09-13T08:55:31.000Z,11.7
2022-09-13T08:58:23.000Z,10.2
2022-09-13T09:01:55.000Z,9.9
2022-09-13T09:05:28.000Z,9.4
2022-09-13T09:09:00.000Z,9.7
2022-09-13T09:12:33.000Z,9.6
2022-09-13T09:16:06.000Z,10.2
2022-09-13T09:19:38.000Z,9.5
2022-09-13T09:23:11.000Z,10.3
2022-09-13T09:26:46.000Z,9.7
2022-09-13T09:30:19.000Z,9.2
2022-09-13T09:33:52.000Z,9.3
2022-09-13T09:36:43.000Z,8.3
2022-09-13T09:40:16.000Z,8.9
2022-09-13T09:43:49.000Z,7.7
2022-09-13T09:47:22.000Z,7.8
2022-09-13T09:50:55.000Z,7.8
2022-09-13T09:54:27.000Z,7.9
2022-09-13T09:58:00.000Z,6.8
2022-09-13T10:01:32.000Z,7.3
2022-09-13T10:05:05.000Z,7.6
2022-09-13T10:08:38.000Z,6.7
2022-09-13T10:12:10.000Z,6.9
2022-09-13T10:15:01.000Z,6.6
2022-09-13T10:18:34.000Z,6.1
2022-09-13T10:22:10.000Z,6.2
2022-09-13T10:25:43.000Z,6.4
2022-09-13T10:29:15.000Z,6.1
2022-09-13T10:32:48.000Z,5.4
2022-09-13T10:36:21.000Z,5.9
2022-09-13T10:40:17.000Z,4.2
2022-09-13T10:43:50.000Z,4.3
2022-09-13T10:47:22.000Z,4.4
2022-09-13T10:50:55.000Z,4.3
2022-09-13T10:53:47.000Z,3.8
2022-09-13T10:57:19.000Z,4.2
2022-09-13T11:00:52.000Z,4.8
2022-09-13T11:04:25.000Z,4.1
2022-09-13T11:07:57.000Z,4
2022-09-13T11:11:30.000Z,4.7
2022-09-13T11:15:03.000Z,4.9
2022-09-13T11:18:35.000Z,4.3
2022-09-13T11:22:08.000Z,4.5
2022-09-13T11:25:41.000Z,4.5
2022-09-13T11:29:14.000Z,4.7
2022-09-13T11:32:05.000Z,4.4
2022-09-13T11:35:38.000Z,4.4
2022-09-13T11:39:10.000Z,4.3
2022-09-13T11:42:43.000Z,4.4
2022-09-13T11:46:15.000Z,4.4
2022-09-13T11:49:48.000Z,3.9
2022-09-13T11:53:21.000Z,3.9
2022-09-13T11:56:55.000Z,2.6
2022-09-13T12:00:28.000Z,2
2022-09-13T12:04:01.000Z,1.9
2022-09-13T12:07:34.000Z,2.1
2022-09-13T12:10:25.000Z,2.2
2022-09-13T12:13:58.000Z,2.1
2022-09-13T12:17:30.000Z,2.1
2022-09-13T12:21:03.000Z,2.1
2022-09-13T12:24:36.000Z,1.8
2022-09-13T12:28:08.000Z,1.9
2022-09-13T12:31:41.000Z,1.8
2022-09-13T12:35:14.000Z,1.8
2022-09-13T12:38:46.000Z,1.8
2022-09-13T12:42:19.000Z,1.8
2022-09-13T12:45:52.000Z,2
2022-09-13T12:48:43.000Z,1.8
2022-09-13T12:52:42.000Z,1.7
2022-09-13T12:56:15.000Z,1.8
2022-09-13T12:59:47.000Z,1.6
2022-09-13T13:03:20.000Z,1.8
2022-09-13T13:06:53.000Z,1.8
2022-09-13T13:10:26.000Z,2.1
2022-09-13T13:13:58.000Z,1.7
2022-09-13T13:17:31.000Z,1.8
2022-09-13T13:21:04.000Z,2.1
2022-09-13T13:24:36.000Z,2
2022-09-13T13:27:28.000Z,1.9
2022-09-13T13:31:00.000Z,2.1
2022-09-13T13:34:33.000Z,2.1
2022-09-13T13:38:06.000Z,2.3
2022-09-13T13:41:39.000Z,2.6
2022-09-13T13:45:11.000Z,2.4
2022-09-13T13:48:44.000Z,2.9
2022-09-13T13:52:17.000Z,2.9
2022-09-13T13:55:49.000Z,2.6
2022-09-13T13:59:22.000Z,2.3
2022-09-13T14:02:55.000Z,2.6
2022-09-13T14:05:46.000Z,2.3
2022-09-13T14:09:19.000Z,2.2
2022-09-13T14:12:58.000Z,2
2022-09-13T14:16:31.000Z,1.8
2022-09-13T14:20:04.000Z,2.2
2022-09-13T14:23:37.000Z,2.3
2022-09-13T14:27:09.000Z,2.6
2022-09-13T14:30:42.000Z,2.4
2022-09-13T14:34:15.000Z,2.7
2022-09-13T14:37:47.000Z,2.4
2022-09-13T14:41:20.000Z,2.2
2022-09-13T14:44:11.000Z,2.1
2022-09-13T14:47:53.000Z,2
2022-09-13T14:51:26.000Z,2.1
2022-09-13T14:54:59.000Z,2.2
2022-09-13T14:58:31.000Z,2.1
2022-09-13T15:02:04.000Z,2.3
2022-09-13T15:05:37.000Z,2.4
2022-09-13T15:09:09.000Z,2.5
2022-09-13T15:12:42.000Z,2.4
2022-09-13T15:16:15.000Z,2.4
2022-09-13T15:19:48.000Z,2.2
2022-09-13T15:22:39.000Z,2.1
2022-09-13T15:26:12.000Z,2.3
2022-09-13T15:29:44.000Z,2.3
2022-09-13T15:33:17.000Z,2.2
2022-09-13T15:36:50.000Z,2.4
2022-09-13T15:40:23.000Z,2.4
2022-09-13T15:43:55.000Z,2.3
2022-09-13T15:47:28.000Z,2.5
2022-09-13T15:51:01.000Z,2.1
2022-09-13T15:54:33.000Z,2.3
2022-09-13T15:58:06.000Z,2.4
2022-09-13T16:00:57.000Z,2.1
2022-09-13T16:04:30.000Z,2.1
2022-09-13T16:08:03.000Z,2.8
2022-09-13T16:11:35.000Z,2.5
2022-09-13T16:15:08.000Z,2.1
2022-09-13T16:18:41.000Z,2.3
2022-09-13T16:22:14.000Z,2
2022-09-13T16:25:47.000Z,2.2
2022-09-13T16:29:19.000Z,2.2
2022-09-13T16:32:52.000Z,2.3
2022-09-13T16:36:25.000Z,2.3
2022-09-13T16:39:16.000Z,2.2
2022-09-13T16:42:49.000Z,2.1
2022-09-13T16:46:22.000Z,2.2
2022-09-13T16:49:54.000Z,2.1
2022-09-13T16:53:27.000Z,2.3
2022-09-13T16:57:00.000Z,2.1
2022-09-13T17:00:33.000Z,2.3
2022-09-13T17:04:05.000Z,2.6
2022-09-13T17:07:38.000Z,2.2
2022-09-13T17:11:11.000Z,2.1
2022-09-13T17:14:44.000Z,2.1
2022-09-13T17:17:35.000Z,2.1
2022-09-13T17:21:08.000Z,2.1
2022-09-13T17:24:40.000Z,2.3
2022-09-13T17:28:13.000Z,2.3
2022-09-13T17:31:46.000Z,2.4
2022-09-13T17:35:19.000Z,2.6
2022-09-13T17:38:51.000Z,2.5
2022-09-13T17:42:24.000Z,2.2
2022-09-13T17:45:57.000Z,2.5
2022-09-13T17:49:30.000Z,2.6
2022-09-13T17:53:02.000Z,3
2022-09-13T17:55:53.000Z,2.9
2022-09-13T17:59:26.000Z,2.9
2022-09-13T18:02:59.000Z,2.5
2022-09-13T18:06:31.000Z,2.7
2022-09-13T18:10:04.000Z,2.6
2022-09-13T18:14:05.000Z,2.6
2022-09-13T18:17:38.000Z,2.7
2022-09-13T18:21:11.000Z,2.5
2022-09-13T18:24:43.000Z,2.4
2022-09-13T18:28:16.000Z,2.5
2022-09-13T18:31:49.000Z,2.3
2022-09-13T18:34:40.000Z,2.3
2022-09-13T18:38:13.000Z,2.2
2022-09-13T18:41:45.000Z,2.6
2022-09-13T18:45:18.000Z,2.5
2022-09-13T18:48:51.000Z,2
2022-09-13T18:52:23.000Z,2.7
2022-09-13T18:55:56.000Z,2.2
2022-09-13T18:59:29.000Z,2.8
2022-09-13T19:03:01.000Z,2.8
2022-09-13T19:06:38.000Z,2.8
2022-09-13T19:10:10.000Z,2.4
2022-09-13T19:13:01.000Z,2.8
2022-09-13T19:16:34.000Z,3
2022-09-13T19:20:07.000Z,2.8
2022-09-13T19:23:39.000Z,2.7
2022-09-13T19:27:25.000Z,2.6
2022-09-13T19:30:57.000Z,2.8
2022-09-13T19:34:30.000Z,3.1
2022-09-13T19:38:03.000Z,3.4
2022-09-13T19:41:35.000Z,3.1
2022-09-13T19:45:08.000Z,3.7
2022-09-13T19:48:41.000Z,3
2022-09-13T19:51:32.000Z,3.1
2022-09-13T19:55:05.000Z,3.2
2022-09-13T19:58:38.000Z,3.4
2022-09-13T20:02:10.000Z,3.6
2022-09-13T20:05:43.000Z,3.2
2022-09-13T20:09:16.000Z,3.4
2022-09-13T20:12:48.000Z,3.5
2022-09-13T20:16:21.000Z,3.5
2022-09-13T20:19:53.000Z,4.9
2022-09-13T20:23:26.000Z,3.9
2022-09-13T20:26:59.000Z,3.7
2022-09-13T20:29:50.000Z,3.1
2022-09-13T20:33:23.000Z,3.6
2022-09-13T20:36:55.000Z,3.1
2022-09-13T20:40:28.000Z,2.7
2022-09-13T20:44:00.000Z,2.9
2022-09-13T20:47:33.000Z,4
2022-09-13T20:51:06.000Z,3.9
2022-09-13T20:54:38.000Z,3.7
2022-09-13T20:58:11.000Z,3.8
2022-09-13T21:01:44.000Z,3.1
2022-09-13T21:05:17.000Z,3.9
2022-09-13T21:08:08.000Z,4.2
2022-09-13T21:11:40.000Z,3.7
2022-09-13T21:15:13.000Z,3.9
2022-09-13T21:18:46.000Z,3.7
2022-09-13T21:22:18.000Z,4.3
2022-09-13T21:25:51.000Z,3.9
2022-09-13T21:29:23.000Z,3.8
2022-09-13T21:32:56.000Z,4.3
2022-09-13T21:36:29.000Z,3.2
2022-09-13T21:40:01.000Z,3.6
2022-09-13T21:43:34.000Z,3.7
2022-09-13T21:46:25.000Z,3.9
2022-09-13T21:49:58.000Z,3.8
2022-09-13T21:53:30.000Z,3.6
2022-09-13T21:57:03.000Z,2.9
2022-09-13T22:00:36.000Z,3.1
2022-09-13T22:04:08.000Z,3.6
2022-09-13T22:07:41.000Z,3.7
2022-09-13T22:11:14.000Z,4.1
2022-09-13T22:14:47.000Z,4.5
2022-09-13T22:18:19.000Z,3.6
2022-09-13T22:21:52.000Z,4.1
2022-09-13T22:24:43.000Z,4.1
2022-09-13T22:28:16.000Z,3.8
2022-09-13T22:31:48.000Z,3.8
2022-09-13T22:35:21.000Z,4
2022-09-13T22:38:53.000Z,3.8
2022-09-13T22:42:26.000Z,4.2
2022-09-13T22:45:59.000Z,4.4
2022-09-13T22:49:32.000Z,4.1
2022-09-13T22:53:05.000Z,4.2
2022-09-13T22:56:37.000Z,4.6
2022-09-13T23:00:10.000Z,4.5
2022-09-13T23:03:01.000Z,4.3
2022-09-13T23:06:33.000Z,4.2
2022-09-13T23:10:06.000Z,4.8
2022-09-13T23:13:39.000Z,4.2
2022-09-13T23:17:11.000Z,4.5
2022-09-13T23:20:44.000Z,4
2022-09-13T23:24:16.000Z,4.2
2022-09-13T23:27:49.000Z,4
2022-09-13T23:31:22.000Z,4.2
2022-09-13T23:34:54.000Z,6.4
2022-09-13T23:38:27.000Z,6.3
2022-09-13T23:41:18.000Z,7.1
2022-09-13T23:44:51.000Z,7
2022-09-13T23:48:24.000Z,7.3
2022-09-13T23:51:56.000Z,7.2
2022-09-13T23:55:29.000Z,6.9
2022-09-13T23:59:01.000Z,7.4
